Time;durP1;ratioP1;P1;durP2;ratioP2;P2;SDS_P1;SDS_P2;PMS_P1;PMS_P2;Temp;Humidity;BMP_temperature;BMP_pressure;BME280_temperature;BME280_humidity;BME280_pressure;Samples;Min_cycle;Max_cycle;Signal;HPM_P1;HPM_P2
2021/12/22 00:00:27;;;;;;;0.90;0.80;;;17.50;57.10;;;;;;5105139;28;20012;-40
2021/12/22 00:02:53;;;;;;;1.02;0.80;;;17.50;57.10;;;;;;5116260;28;20130;-40
2021/12/22 00:05:23;;;;;;;1.75;1.02;;;17.60;57.20;;;;;;5125047;28;20392;-40
2021/12/22 00:07:49;;;;;;;1.08;0.90;;;17.60;57.10;;;;;;5124305;28;20522;-40
2021/12/22 00:10:15;;;;;;;1.23;0.80;;;17.70;57.10;;;;;;5125213;28;20031;-40
2021/12/22 00:12:41;;;;;;;0.90;0.70;;;17.60;57.00;;;;;;5125317;28;20035;-41
2021/12/22 00:15:08;;;;;;;1.30;0.90;;;17.60;57.10;;;;;;5113425;28;20032;-40
2021/12/22 00:17:34;;;;;;;0.98;0.80;;;17.50;57.20;;;;;;5104758;28;20031;-42
2021/12/22 00:20:01;;;;;;;0.75;0.75;;;17.50;57.20;;;;;;5112092;28;20031;-40
2021/12/22 00:22:27;;;;;;;1.30;1.10;;;17.60;57.20;;;;;;5124561;28;20032;-40
2021/12/22 00:24:53;;;;;;;1.15;0.98;;;17.60;57.30;;;;;;5124915;28;20027;-40
2021/12/22 00:27:19;;;;;;;1.40;0.82;;;17.60;57.30;;;;;;5125018;27;20028;-40
2021/12/22 00:29:48;;;;;;;1.38;1.00;;;17.70;57.20;;;;;;5125105;28;20024;-40
2021/12/22 00:32:16;;;;;;;1.13;0.93;;;17.60;57.60;;;;;;5124900;28;20090;-42
2021/12/22 00:34:49;;;;;;;1.58;0.95;;;17.60;57.20;;;;;;5124907;28;20024;-40
2021/12/22 00:37:17;;;;;;;1.38;1.02;;;17.50;57.30;;;;;;5124883;28;20020;-41
2021/12/22 00:39:44;;;;;;;1.55;1.00;;;17.40;57.30;;;;;;5105108;28;20095;-40
2021/12/22 00:42:11;;;;;;;1.10;1.00;;;17.40;57.30;;;;;;5104217;28;20040;-40
2021/12/22 00:44:38;;;;;;;1.10;1.00;;;17.60;57.30;;;;;;5111923;28;20027;-40
2021/12/22 00:47:04;;;;;;;1.50;1.10;;;17.60;57.40;;;;;;5124647;28;20059;-40
2021/12/22 00:49:31;;;;;;;1.60;1.27;;;17.70;57.40;;;;;;5121186;28;20481;-40
2021/12/22 00:51:57;;;;;;;1.10;1.00;;;17.60;57.30;;;;;;5104366;28;20031;-40
2021/12/22 00:54:23;;;;;;;1.10;1.00;;;17.60;57.30;;;;;;5104081;28;20032;-40
2021/12/22 00:56:49;;;;;;;1.83;0.98;;;17.60;57.30;;;;;;5120814;28;20056;-40
2021/12/22 00:59:17;;;;;;;1.20;1.10;;;17.50;57.30;;;;;;5124638;28;20033;-41
2021/12/22 01:01:45;;;;;;;2.05;0.95;;;17.40;57.30;;;;;;5124347;28;20054;-39
2021/12/22 01:04:11;;;;;;;1.10;0.90;;;17.50;57.40;;;;;;5123819;28;20032;-41
2021/12/22 01:06:37;;;;;;;2.25;1.23;;;17.60;57.40;;;;;;5123966;28;20031;-40
2021/12/22 01:09:04;;;;;;;1.33;1.05;;;17.60;57.50;;;;;;5109614;27;20049;-40
2021/12/22 01:11:31;;;;;;;1.13;0.90;;;17.60;57.40;;;;;;5103907;28;20135;-40
2021/12/22 01:13:57;;;;;;;1.23;0.80;;;17.60;57.90;;;;;;5115600;28;20030;-40
2021/12/22 01:16:23;;;;;;;1.33;0.98;;;17.60;57.30;;;;;;5123076;28;20066;-40
2021/12/22 01:18:49;;;;;;;1.00;0.90;;;17.50;57.30;;;;;;5124058;28;20035;-40
2021/12/22 01:21:22;;;;;;;1.75;1.00;;;17.50;57.40;;;;;;5106151;28;20038;-40
2021/12/22 01:24:01;;;;;;;1.40;1.10;;;17.40;57.50;;;;;;5103686;28;20031;-40
2021/12/22 01:26:33;;;;;;;1.35;0.98;;;17.50;57.50;;;;;;5103413;28;20538;-41
2021/12/22 01:29:00;;;;;;;1.50;1.02;;;17.60;57.60;;;;;;5103465;28;20042;-40
2021/12/22 01:31:26;;;;;;;1.33;0.90;;;17.70;57.60;;;;;;5123717;28;20099;-40
2021/12/22 01:33:52;;;;;;;1.40;1.08;;;17.60;57.50;;;;;;5123985;28;20027;-41
2021/12/22 01:36:18;;;;;;;1.48;0.88;;;17.60;57.40;;;;;;5123458;28;20023;-40
2021/12/22 01:38:44;;;;;;;1.17;1.00;;;17.60;57.40;;;;;;5122829;28;20506;-39
2021/12/22 01:41:11;;;;;;;1.63;1.10;;;17.50;57.50;;;;;;5123617;28;20038;-40
2021/12/22 01:43:37;;;;;;;1.35;0.98;;;17.50;57.50;;;;;;5123646;28;20586;-40
2021/12/22 01:51:35;;;;;;;1.48;1.13;;;17.60;57.70;;;;;;5104026;28;20042;-41
2021/12/22 01:54:17;;;;;;;1.02;0.90;;;17.60;57.60;;;;;;5103085;28;20024;-40
2021/12/22 01:56:43;;;;;;;1.30;1.10;;;17.60;57.50;;;;;;5105610;28;20023;-40
2021/12/22 01:59:10;;;;;;;1.83;1.20;;;17.60;57.60;;;;;;5123280;28;20043;-40
2021/12/22 02:01:36;;;;;;;1.65;1.30;;;17.50;57.50;;;;;;5123124;28;20054;-40
2021/12/22 02:04:04;;;;;;;1.90;1.30;;;17.50;57.60;;;;;;5123364;28;20023;-40
2021/12/22 02:06:30;;;;;;;2.20;1.10;;;17.50;57.70;;;;;;5122868;28;20032;-40
2021/12/22 02:08:58;;;;;;;1.10;1.00;;;17.50;57.70;;;;;;5110178;28;20034;-40
2021/12/22 02:11:24;;;;;;;1.70;1.30;;;17.50;57.70;;;;;;5102870;28;20020;-42
2021/12/22 02:13:58;;;;;;;1.77;1.25;;;17.70;57.80;;;;;;5103822;28;20034;-40
2021/12/22 02:16:30;;;;;;;1.45;1.30;;;17.60;57.70;;;;;;5123277;28;20118;-40
2021/12/22 02:18:56;;;;;;;1.23;1.13;;;17.60;57.60;;;;;;5121531;28;20027;-40
2021/12/22 02:21:24;;;;;;;1.40;1.20;;;17.60;57.70;;;;;;5122833;28;20361;-40
2021/12/22 02:23:52;;;;;;;2.03;1.30;;;17.50;57.70;;;;;;5123102;28;20035;-40
2021/12/22 02:26:23;;;;;;;1.70;1.33;;;17.50;57.80;;;;;;5122765;28;20024;-40
2021/12/22 02:28:58;;;;;;;1.58;1.17;;;17.50;57.80;;;;;;5122872;28;20038;-40
2021/12/22 02:31:24;;;;;;;1.67;1.20;;;17.50;57.80;;;;;;5102203;27;20603;-42
2021/12/22 02:33:51;;;;;;;1.35;1.20;;;17.50;57.90;;;;;;5102540;28;20066;-40
2021/12/22 02:36:27;;;;;;;1.52;1.30;;;17.60;57.90;;;;;;5102372;28;20546;-40
2021/12/22 02:38:56;;;;;;;1.02;0.93;;;17.60;57.80;;;;;;5115066;28;20032;-40
2021/12/22 02:41:26;;;;;;;1.20;1.10;;;17.60;57.80;;;;;;5122875;28;20028;-40
2021/12/22 02:43:54;;;;;;;1.95;1.27;;;17.60;57.80;;;;;;5102824;28;20072;-40
2021/12/22 02:46:31;;;;;;;1.85;1.35;;;17.50;57.80;;;;;;5102150;28;20028;-40
2021/12/22 02:49:00;;;;;;;1.55;1.30;;;17.50;57.90;;;;;;5102287;28;20044;-40
2021/12/22 02:51:29;;;;;;;2.92;1.40;;;17.50;57.90;;;;;;5102206;28;20478;-39
2021/12/22 02:57:08;;;;;;;1.20;1.10;;;17.60;58.00;;;;;;5039875;28;20195;-40
2021/12/22 03:02:36;;;;;;;1.77;1.38;;;17.60;57.80;;;;;;5036344;28;20049;-40
2021/12/22 03:05:03;;;;;;;3.22;1.48;;;17.60;57.90;;;;;;5059019;28;20112;-41
2021/12/22 03:07:31;;;;;;;1.55;1.40;;;17.60;57.90;;;;;;5051308;28;20040;-40
2021/12/22 03:10:00;;;;;;;1.80;1.30;;;17.50;58.00;;;;;;5039350;28;20029;-42
2021/12/22 03:12:28;;;;;;;1.63;1.30;;;17.50;58.00;;;;;;5046893;28;20132;-40
2021/12/22 03:14:54;;;;;;;1.98;1.52;;;17.50;57.90;;;;;;5050820;28;20026;-40
2021/12/22 03:17:20;;;;;;;1.67;1.50;;;17.60;58.00;;;;;;5038863;28;20038;-41
2021/12/22 03:19:46;;;;;;;2.35;1.50;;;17.60;58.00;;;;;;5041457;28;20040;-40
2021/12/22 03:22:17;;;;;;;1.80;1.55;;;17.60;57.90;;;;;;5058677;28;20060;-40
2021/12/22 03:24:45;;;;;;;1.63;1.40;;;17.60;57.90;;;;;;5052214;28;20063;-41
2021/12/22 03:27:10;;;;;;;;;;;17.60;58.00;;;;;;5039392;28;20051;-42
2021/12/22 03:29:38;;;;;;;2.13;1.60;;;17.50;58.50;;;;;;5039060;28;19915;-40
2021/12/22 03:32:05;;;;;;;1.60;1.40;;;17.40;58.00;;;;;;5099562;28;20103;-40
2021/12/22 03:34:31;;;;;;;1.67;1.15;;;17.50;58.00;;;;;;5102073;28;20025;-40
2021/12/22 03:36:57;;;;;;;2.60;1.38;;;17.60;58.10;;;;;;5101678;28;20035;-40
2021/12/22 03:39:23;;;;;;;1.83;1.27;;;17.60;58.10;;;;;;5118738;28;20031;-41
2021/12/22 03:41:50;;;;;;;1.75;1.45;;;17.60;58.00;;;;;;5123207;28;20028;-40
2021/12/22 03:44:16;;;;;;;1.60;1.10;;;17.60;57.90;;;;;;5105769;28;20145;-40
2021/12/22 03:46:42;;;;;;;2.00;1.30;;;17.60;58.00;;;;;;5105247;28;20077;-42
2021/12/22 03:49:09;;;;;;;2.97;1.58;;;17.50;58.10;;;;;;5105241;28;20048;-40
2021/12/22 03:51:36;;;;;;;1.73;1.50;;;17.50;58.10;;;;;;5105475;28;20031;-40
2021/12/22 03:54:04;;;;;;;2.35;1.50;;;17.40;58.00;;;;;;5113815;28;20054;-40
2021/12/22 03:56:30;;;;;;;2.03;1.80;;;17.50;58.10;;;;;;5125666;28;20023;-40
2021/12/22 03:58:56;;;;;;;1.75;1.52;;;17.50;58.10;;;;;;5125896;28;20028;-40
2021/12/22 04:01:22;;;;;;;1.83;1.73;;;17.60;58.20;;;;;;5125360;28;20023;-40
2021/12/22 04:03:52;;;;;;;1.83;1.63;;;17.60;58.00;;;;;;5125627;28;20102;-40
2021/12/22 04:06:18;;;;;;;1.88;1.60;;;17.70;58.00;;;;;;5125443;28;20038;-40
2021/12/22 04:08:44;;;;;;;1.67;1.50;;;17.60;58.00;;;;;;5113618;28;20036;-40
2021/12/22 04:11:10;;;;;;;2.33;1.65;;;17.50;58.00;;;;;;5105179;28;20024;-40
2021/12/22 04:13:36;;;;;;;1.92;1.70;;;17.50;58.10;;;;;;5123160;28;20419;-40
2021/12/22 04:16:03;;;;;;;2.35;1.80;;;17.40;58.10;;;;;;5105318;28;20026;-40
2021/12/22 04:18:29;;;;;;;2.10;1.90;;;17.50;58.10;;;;;;5104772;28;20032;-40
2021/12/22 04:20:55;;;;;;;2.53;1.88;;;17.60;58.10;;;;;;5104935;28;20050;-40
2021/12/22 04:23:21;;;;;;;1.98;1.83;;;17.60;58.10;;;;;;5104655;28;20056;-40
2021/12/22 04:25:47;;;;;;;2.30;2.00;;;17.70;58.00;;;;;;5104506;28;20092;-40
2021/12/22 04:28:14;;;;;;;2.10;1.90;;;17.60;58.00;;;;;;5104865;28;20057;-39
2021/12/22 04:30:45;;;;;;;2.13;1.90;;;17.60;58.00;;;;;;5118485;28;20130;-40
2021/12/22 04:33:11;;;;;;;2.88;1.98;;;17.50;58.00;;;;;;5124908;28;20033;-40
2021/12/22 04:35:37;;;;;;;1.85;1.60;;;17.50;58.00;;;;;;5125081;28;20027;-40
2021/12/22 04:38:03;;;;;;;2.47;2.20;;;17.40;58.00;;;;;;5122934;28;20027;-39
2021/12/22 04:40:30;;;;;;;2.00;1.80;;;17.50;58.00;;;;;;5124970;28;20049;-40
2021/12/22 04:42:56;;;;;;;1.85;1.58;;;17.60;58.10;;;;;;5124903;28;20043;-40
2021/12/22 04:45:22;;;;;;;1.83;1.58;;;17.60;58.00;;;;;;5124935;28;20068;-40
2021/12/22 04:47:50;;;;;;;1.88;1.70;;;17.70;58.00;;;;;;5124425;28;20826;-40
2021/12/22 04:50:17;;;;;;;2.30;2.10;;;17.60;57.90;;;;;;5124736;28;20048;-39
2021/12/22 04:52:54;;;;;;;;;;;17.50;57.90;;;;;;5123833;28;20031;-39
2021/12/22 04:55:20;;;;;;;1.90;1.70;;;17.50;58.00;;;;;;5124860;28;20406;-40
2021/12/22 04:57:46;;;;;;;2.10;1.90;;;17.40;58.00;;;;;;5124464;28;20055;-40
2021/12/22 05:00:13;;;;;;;2.40;2.05;;;17.40;58.00;;;;;;5124356;28;20034;-40
2021/12/22 05:02:39;;;;;;;2.15;1.95;;;17.50;58.10;;;;;;5124046;28;20039;-40
2021/12/22 05:05:06;;;;;;;1.95;1.73;;;17.60;58.10;;;;;;5124576;28;20023;-40
2021/12/22 05:07:32;;;;;;;2.53;2.20;;;17.60;58.00;;;;;;5122309;28;20058;-40
2021/12/22 05:09:58;;;;;;;2.25;1.92;;;17.60;58.00;;;;;;5124309;28;20019;-40
2021/12/22 05:12:24;;;;;;;2.80;2.05;;;17.60;58.00;;;;;;5124289;28;20031;-40
2021/12/22 05:14:52;;;;;;;2.17;1.88;;;17.50;58.00;;;;;;5124272;28;20098;-40
2021/12/22 05:17:22;;;;;;;2.08;1.80;;;17.50;58.10;;;;;;5123996;28;20080;-40
2021/12/22 05:19:48;;;;;;;2.00;1.80;;;17.40;58.10;;;;;;5124169;28;20024;-40
2021/12/22 05:22:15;;;;;;;1.95;1.75;;;17.50;58.10;;;;;;5124120;28;20039;-41
2021/12/22 05:24:41;;;;;;;2.13;1.88;;;17.60;58.20;;;;;;5123654;28;20036;-40
2021/12/22 05:27:08;;;;;;;2.17;1.63;;;17.60;58.10;;;;;;5123909;28;20034;-42
2021/12/22 05:29:35;;;;;;;2.03;1.70;;;17.60;58.00;;;;;;5124146;28;20061;-40
2021/12/22 05:32:03;;;;;;;2.00;1.80;;;17.60;58.00;;;;;;5124019;28;20110;-40
2021/12/22 05:34:30;;;;;;;2.45;1.80;;;17.60;58.10;;;;;;5123939;28;20038;-40
2021/12/22 05:36:56;;;;;;;1.70;1.58;;;17.50;58.10;;;;;;5123984;28;20034;-40
2021/12/22 05:39:22;;;;;;;2.20;2.00;;;17.40;58.10;;;;;;5122835;28;20033;-39
2021/12/22 05:41:48;;;;;;;2.53;1.88;;;17.40;58.20;;;;;;5123793;28;20043;-40
2021/12/22 05:44:14;;;;;;;2.25;1.92;;;17.40;58.10;;;;;;5123927;28;20055;-40
2021/12/22 05:46:40;;;;;;;3.25;1.95;;;17.50;58.10;;;;;;5123571;28;20032;-40
2021/12/22 05:49:06;;;;;;;2.63;1.88;;;17.60;58.20;;;;;;5123329;28;20051;-40
2021/12/22 05:51:34;;;;;;;2.40;2.08;;;17.60;58.10;;;;;;5123626;28;20020;-40
2021/12/22 05:54:00;;;;;;;2.05;1.48;;;17.60;58.60;;;;;;5123717;28;20053;-39
2021/12/22 05:56:29;;;;;;;2.05;1.75;;;17.60;58.10;;;;;;5123630;28;20020;-40
2021/12/22 05:58:56;;;;;;;2.33;1.95;;;17.50;58.10;;;;;;5123215;28;20031;-40
2021/12/22 06:01:22;;;;;;;3.08;1.63;;;17.50;58.20;;;;;;5111692;28;20023;-40
2021/12/22 06:03:48;;;;;;;1.80;1.70;;;17.40;58.20;;;;;;5122996;28;20028;-40
2021/12/22 06:06:14;;;;;;;1.80;1.50;;;17.40;58.10;;;;;;5123593;28;20020;-41
2021/12/22 06:08:40;;;;;;;2.30;1.77;;;17.50;58.20;;;;;;5111690;28;20039;-40
2021/12/22 06:11:06;;;;;;;1.67;1.40;;;17.60;58.20;;;;;;5103277;28;20710;-40
2021/12/22 06:13:33;;;;;;;2.70;1.60;;;17.70;58.20;;;;;;5120398;28;20045;-40
2021/12/22 06:15:59;;;;;;;3.25;1.60;;;17.60;58.00;;;;;;5104123;28;20052;-40
2021/12/22 06:18:26;;;;;;;1.58;1.48;;;17.60;58.00;;;;;;5102536;28;20540;-40
2021/12/22 06:20:52;;;;;;;2.20;1.85;;;17.50;58.10;;;;;;5103124;28;20035;-40
2021/12/22 06:23:18;;;;;;;1.85;1.70;;;17.50;58.20;;;;;;5102889;28;20032;-40
2021/12/22 06:25:44;;;;;;;1.90;1.60;;;17.40;58.10;;;;;;5102892;28;20091;-40
2021/12/22 06:28:10;;;;;;;2.33;1.63;;;17.50;58.10;;;;;;5102618;28;20138;-41
2021/12/22 06:30:36;;;;;;;1.63;1.52;;;17.60;58.20;;;;;;5116007;28;20032;-40
2021/12/22 06:33:02;;;;;;;1.63;1.42;;;17.60;58.20;;;;;;5122727;28;20024;-41
2021/12/22 06:35:29;;;;;;;1.60;1.50;;;17.60;58.10;;;;;;5123166;28;20027;-41
2021/12/22 06:37:55;;;;;;;1.70;1.50;;;17.60;58.00;;;;;;5118032;28;20039;-40
2021/12/22 06:40:22;;;;;;;2.35;1.65;;;17.50;58.10;;;;;;5102642;28;20043;-40
2021/12/22 06:42:48;;;;;;;2.05;1.50;;;17.50;58.20;;;;;;5113665;28;20035;-41
2021/12/22 06:45:14;;;;;;;2.65;1.65;;;17.40;58.10;;;;;;5123135;28;20028;-40
2021/12/22 06:47:40;;;;;;;1.73;1.38;;;17.40;58.20;;;;;;5123086;28;20042;-40
2021/12/22 06:50:07;;;;;;;1.17;1.07;;;17.50;58.20;;;;;;5122747;28;20036;-40
2021/12/22 06:52:33;;;;;;;1.48;1.17;;;17.60;58.30;;;;;;5123192;28;20296;-40
2021/12/22 06:54:59;;;;;;;1.60;1.40;;;17.60;58.20;;;;;;5122830;28;20052;-40
2021/12/22 06:57:26;;;;;;;3.22;1.35;;;17.60;58.10;;;;;;5122783;28;20028;-40
2021/12/22 06:59:52;;;;;;;1.75;1.52;;;17.60;58.10;;;;;;5122767;28;20028;-41
2021/12/22 07:02:18;;;;;;;1.65;1.55;;;17.50;58.10;;;;;;5121189;28;20099;-40
2021/12/22 07:04:44;;;;;;;1.85;1.58;;;17.50;58.20;;;;;;5122520;28;20028;-39
2021/12/22 07:07:10;;;;;;;2.00;1.40;;;17.40;58.20;;;;;;5122563;28;20031;-40
2021/12/22 07:09:37;;;;;;;1.88;1.48;;;17.40;58.20;;;;;;5121844;28;20024;-40
2021/12/22 07:12:03;;;;;;;1.60;1.30;;;17.40;58.20;;;;;;5122895;28;20030;-40
2021/12/22 07:14:29;;;;;;;3.03;1.55;;;17.50;58.30;;;;;;5116440;28;20024;-40
2021/12/22 07:16:55;;;;;;;1.40;1.30;;;17.60;58.30;;;;;;5106186;28;20043;-40
2021/12/22 07:19:21;;;;;;;1.55;1.20;;;17.60;58.20;;;;;;5126360;28;20027;-40
2021/12/22 07:21:49;;;;;;;1.48;1.30;;;17.60;58.10;;;;;;5126689;28;20042;-40
2021/12/22 07:24:14;;;;;;;;;;;17.50;58.10;;;;;;5126715;28;20027;-39
2021/12/22 07:26:41;;;;;;;1.95;1.50;;;17.50;58.20;;;;;;5126653;28;19919;-40
2021/12/22 07:29:07;;;;;;;1.85;1.60;;;17.50;58.20;;;;;;5126357;28;20100;-40
2021/12/22 07:31:33;;;;;;;2.15;1.40;;;17.50;58.20;;;;;;5126622;28;20015;-40
2021/12/22 07:34:00;;;;;;;1.80;1.13;;;17.50;58.10;;;;;;5126229;28;20092;-40
2021/12/22 07:36:27;;;;;;;1.27;1.10;;;17.60;58.20;;;;;;5126070;28;20088;-41
2021/12/22 07:39:03;;;;;;;1.48;1.30;;;17.60;58.20;;;;;;5113215;28;20032;-40
2021/12/22 07:41:30;;;;;;;1.85;1.40;;;17.60;58.00;;;;;;5106043;28;20028;-38
2021/12/22 07:43:56;;;;;;;1.88;1.40;;;17.60;58.00;;;;;;5105955;28;20035;-40
2021/12/22 07:46:22;;;;;;;2.15;1.30;;;17.50;58.00;;;;;;5105752;28;20030;-40
2021/12/22 07:48:49;;;;;;;1.58;1.40;;;17.50;58.10;;;;;;5105381;28;20086;-40
2021/12/22 07:51:15;;;;;;;2.25;1.48;;;17.40;58.10;;;;;;5105831;28;20021;-40
2021/12/22 07:53:41;;;;;;;2.03;1.40;;;17.50;58.10;;;;;;5105850;28;20028;-40
2021/12/22 07:56:07;;;;;;;1.08;0.98;;;17.60;58.20;;;;;;5116905;28;20057;-40
2021/12/22 07:58:33;;;;;;;1.55;1.38;;;17.60;58.10;;;;;;5126188;28;20046;-40
2021/12/22 08:00:59;;;;;;;1.55;1.08;;;17.60;58.00;;;;;;5125555;28;20032;-40
2021/12/22 08:03:26;;;;;;;1.70;1.40;;;17.60;57.90;;;;;;5125695;28;20032;-40
2021/12/22 08:05:52;;;;;;;2.08;1.20;;;17.50;58.00;;;;;;5125596;28;20024;-40
2021/12/22 08:08:19;;;;;;;1.67;1.40;;;17.40;58.00;;;;;;5117717;28;20031;-40
2021/12/22 08:10:46;;;;;;;1.57;1.03;;;17.40;58.00;;;;;;5105221;28;20048;-40
2021/12/22 08:13:12;;;;;;;1.90;1.50;;;17.50;58.10;;;;;;5105422;28;20090;-40
2021/12/22 08:15:38;;;;;;;1.60;1.20;;;17.50;58.10;;;;;;5121585;28;20095;-40
2021/12/22 08:18:04;;;;;;;1.60;1.27;;;17.60;58.10;;;;;;5125609;27;20096;-40
2021/12/22 08:20:31;;;;;;;1.50;1.30;;;17.60;58.00;;;;;;5125351;28;20028;-40
2021/12/22 08:22:57;;;;;;;1.40;1.20;;;17.60;57.90;;;;;;5125603;28;20047;-40
2021/12/22 08:25:23;;;;;;;1.45;1.25;;;17.50;57.90;;;;;;5125220;28;20034;-40
2021/12/22 08:27:49;;;;;;;1.35;0.98;;;17.50;58.00;;;;;;5125523;28;20023;-40
2021/12/22 08:30:15;;;;;;;1.98;1.30;;;17.50;58.10;;;;;;5125452;28;20024;-40
2021/12/22 08:32:41;;;;;;;1.40;1.17;;;17.40;58.00;;;;;;5125191;28;20031;-40
2021/12/22 08:35:10;;;;;;;1.75;1.33;;;17.50;58.10;;;;;;5125407;28;20032;-40
2021/12/22 08:40:21;;;;;;;1.45;1.13;;;17.60;58.00;;;;;;5125116;28;20027;-40
2021/12/22 08:42:47;;;;;;;1.30;1.20;;;17.60;57.90;;;;;;5125283;28;20472;-40
2021/12/22 08:45:14;;;;;;;2.55;1.20;;;17.60;57.90;;;;;;5125188;28;20110;-40
2021/12/22 08:47:40;;;;;;;1.50;1.27;;;17.50;57.90;;;;;;5125020;27;20024;-39
2021/12/22 08:50:08;;;;;;;1.23;1.10;;;17.40;58.00;;;;;;5124828;28;20051;-40
2021/12/22 08:52:34;;;;;;;1.30;1.20;;;17.40;58.00;;;;;;5125082;28;20032;-40
2021/12/22 08:55:00;;;;;;;1.20;1.10;;;17.50;58.10;;;;;;5125069;28;20020;-41
2021/12/22 08:57:26;;;;;;;1.20;1.10;;;17.50;58.00;;;;;;5124904;28;20034;-40
2021/12/22 08:59:53;;;;;;;1.38;1.23;;;17.60;58.00;;;;;;5124702;28;20515;-40
2021/12/22 09:02:20;;;;;;;1.10;1.00;;;17.60;57.90;;;;;;5124711;28;20064;-40
2021/12/22 09:04:46;;;;;;;1.60;1.10;;;17.50;57.90;;;;;;5124036;28;20027;-40
2021/12/22 09:07:12;;;;;;;1.27;1.10;;;17.50;57.90;;;;;;5124866;28;20042;-40
2021/12/22 09:09:38;;;;;;;1.63;1.20;;;17.40;58.00;;;;;;5123410;28;20061;-42
2021/12/22 09:12:08;;;;;;;1.27;1.00;;;17.40;57.90;;;;;;5124147;28;20027;-40
2021/12/22 09:14:34;;;;;;;1.33;1.23;;;17.40;58.00;;;;;;5124506;28;20031;-40
2021/12/22 09:17:00;;;;;;;1.35;1.00;;;17.50;58.10;;;;;;5124368;28;20062;-40
2021/12/22 09:19:26;;;;;;;0.98;0.90;;;17.50;58.00;;;;;;5124757;28;20015;-40
2021/12/22 09:21:52;;;;;;;1.13;1.02;;;17.60;57.90;;;;;;5124279;28;20039;-40
2021/12/22 09:24:19;;;;;;;1.85;1.30;;;17.60;57.80;;;;;;5124192;28;20056;-39
2021/12/22 09:26:45;;;;;;;1.10;1.00;;;17.50;57.80;;;;;;5124234;28;20026;-40
2021/12/22 09:29:11;;;;;;;1.30;1.20;;;17.40;57.80;;;;;;5124331;28;20072;-40
2021/12/22 09:31:37;;;;;;;1.00;0.90;;;17.40;57.90;;;;;;5123678;28;20024;-40
2021/12/22 09:34:04;;;;;;;1.52;1.27;;;17.30;57.90;;;;;;5124302;28;20392;-40
2021/12/22 09:36:30;;;;;;;1.23;1.10;;;17.40;57.90;;;;;;5123846;28;20087;-40
2021/12/22 09:38:56;;;;;;;1.88;1.10;;;17.50;58.00;;;;;;5122579;28;20031;-40
2021/12/22 09:41:23;;;;;;;1.15;1.02;;;17.50;57.90;;;;;;5123714;28;20719;-40
2021/12/22 09:43:52;;;;;;;1.15;1.05;;;17.60;57.80;;;;;;5104363;28;20032;-41
2021/12/22 09:46:21;;;;;;;1.30;1.20;;;17.50;57.80;;;;;;5103624;28;20028;-40
2021/12/22 09:48:58;;;;;;;1.17;1.08;;;17.40;57.80;;;;;;5103426;28;20048;-40
2021/12/22 09:53:52;;;;;;;1.20;1.10;;;17.40;57.90;;;;;;5103586;28;20096;-40
2021/12/22 09:56:23;;;;;;;1.73;1.20;;;17.50;57.90;;;;;;5103396;28;20032;-40
2021/12/22 09:58:50;;;;;;;1.05;0.98;;;17.50;58.00;;;;;;5103347;28;20028;-40
2021/12/22 10:01:23;;;;;;;1.30;1.20;;;17.60;57.90;;;;;;5121576;28;20028;-40
2021/12/22 10:03:58;;;;;;;1.58;1.00;;;17.60;57.80;;;;;;5123538;28;20493;-40
2021/12/22 10:06:25;;;;;;;2.50;1.05;;;17.50;57.80;;;;;;5122125;28;20700;-40
2021/12/22 10:09:00;;;;;;;1.15;1.05;;;17.40;57.90;;;;;;5122718;28;20086;-40
2021/12/22 10:11:26;;;;;;;1.33;1.20;;;17.30;57.90;;;;;;5123332;28;20031;-40
2021/12/22 10:13:52;;;;;;;1.30;1.20;;;17.40;57.90;;;;;;5122171;28;20057;-40
2021/12/22 10:16:23;;;;;;;1.25;1.00;;;17.50;58.00;;;;;;5123458;28;20035;-40
2021/12/22 10:19:06;;;;;;;1.50;1.25;;;17.60;58.00;;;;;;5123381;28;20063;-40
2021/12/22 10:21:33;;;;;;;1.10;1.00;;;17.60;57.90;;;;;;5122008;28;20027;-40
2021/12/22 10:24:01;;;;;;;2.00;1.05;;;17.50;57.80;;;;;;5123535;28;20076;-40
2021/12/22 10:26:27;;;;;;;1.30;0.90;;;17.50;57.80;;;;;;5123069;28;20057;-40
2021/12/22 10:28:56;;;;;;;1.25;1.10;;;17.40;57.80;;;;;;5123168;28;20031;-41
2021/12/22 10:31:26;;;;;;;1.02;0.93;;;17.40;57.90;;;;;;5103546;28;20463;-40
2021/12/22 10:33:52;;;;;;;0.98;0.75;;;17.40;57.90;;;;;;5101448;28;20043;-41
2021/12/22 10:36:21;;;;;;;1.13;1.02;;;17.50;57.90;;;;;;5102492;28;20054;-40
2021/12/22 10:38:52;;;;;;;1.52;1.00;;;17.60;58.00;;;;;;5114350;28;20051;-40
2021/12/22 10:41:20;;;;;;;1.05;0.85;;;17.60;57.80;;;;;;5121763;28;20032;-40
2021/12/22 10:43:48;;;;;;;1.10;1.00;;;17.50;57.70;;;;;;5103969;28;20036;-40
2021/12/22 10:46:26;;;;;;;1.38;0.80;;;17.50;57.80;;;;;;5101210;28;20553;-40
2021/12/22 10:49:14;;;;;;;;;;;17.40;57.80;;;;;;5102996;28;20048;-40
2021/12/22 10:51:42;;;;;;;1.20;1.10;;;17.40;57.90;;;;;;5106472;28;19954;-40
2021/12/22 10:54:13;;;;;;;1.10;1.00;;;17.30;57.90;;;;;;5106988;28;20027;-40
2021/12/22 10:56:44;;;;;;;1.25;1.15;;;17.40;57.90;;;;;;5106520;28;20031;-40
2021/12/22 10:59:15;;;;;;;1.15;0.80;;;17.50;57.90;;;;;;5107961;28;20024;-40
2021/12/22 11:02:09;;;;;;;1.40;1.00;;;17.50;57.80;;;;;;5127098;28;20120;-40
2021/12/22 11:04:37;;;;;;;1.67;1.00;;;17.50;57.70;;;;;;5126372;28;20030;-40
2021/12/22 11:07:15;;;;;;;2.83;1.10;;;17.50;57.80;;;;;;5107935;28;20558;-40
2021/12/22 11:09:41;;;;;;;1.15;1.05;;;17.40;57.80;;;;;;5125707;28;20500;-39
2021/12/22 11:12:07;;;;;;;1.77;1.25;;;17.40;57.80;;;;;;5126788;28;20035;-40
2021/12/22 11:14:38;;;;;;;1.10;1.00;;;17.30;57.80;;;;;;5126491;28;20050;-40
2021/12/22 11:17:09;;;;;;;1.02;1.00;;;17.40;57.80;;;;;;5126778;27;20024;-40
2021/12/22 11:19:48;;;;;;;1.70;0.98;;;17.50;57.90;;;;;;5126531;27;20042;-40
2021/12/22 11:22:15;;;;;;;1.88;1.20;;;17.50;57.80;;;;;;5126743;28;20067;-40
2021/12/22 11:24:43;;;;;;;1.15;1.00;;;17.50;57.70;;;;;;5126766;28;20035;-40
2021/12/22 11:27:09;;;;;;;;;;;17.40;57.70;;;;;;5126846;28;20032;-39
2021/12/22 11:29:37;;;;;;;1.20;0.90;;;17.40;57.80;;;;;;5126475;28;19930;-40
2021/12/22 11:32:07;;;;;;;2.75;1.30;;;17.30;57.80;;;;;;5126546;28;20039;-39
2021/12/22 11:34:37;;;;;;;1.23;0.90;;;17.40;57.90;;;;;;5126537;28;20032;-40
2021/12/22 11:37:05;;;;;;;1.48;1.15;;;17.50;57.90;;;;;;5126244;28;20487;-40
2021/12/22 11:39:31;;;;;;;1.67;0.82;;;17.50;57.80;;;;;;5125250;28;20044;-40
2021/12/22 11:41:59;;;;;;;1.08;0.98;;;17.50;57.70;;;;;;5122018;28;20035;-40
2021/12/22 11:44:26;;;;;;;1.30;1.02;;;17.50;57.70;;;;;;5106125;28;20377;-40
2021/12/22 11:46:56;;;;;;;;;;;17.40;57.70;;;;;;5106043;28;20028;-39
2021/12/22 11:49:23;;;;;;;1.35;1.10;;;17.40;57.80;;;;;;5104249;28;19927;-40
2021/12/22 11:51:49;;;;;;;1.45;1.10;;;17.30;57.90;;;;;;5105959;28;20035;-40
2021/12/22 11:54:16;;;;;;;1.30;1.00;;;17.40;57.90;;;;;;5114274;28;20034;-40
2021/12/22 11:56:48;;;;;;;1.23;1.00;;;17.50;57.90;;;;;;5125887;28;20027;-40
2021/12/22 11:59:45;;;;;;;1.92;0.90;;;17.50;57.90;;;;;;5125702;28;20087;-42
2021/12/22 12:02:18;;;;;;;0.90;0.70;;;17.50;57.80;;;;;;5112272;28;20553;-44
2021/12/22 12:04:44;;;;;;;1.40;0.90;;;17.50;57.80;;;;;;5125841;28;20087;-41
2021/12/22 12:07:10;;;;;;;1.27;1.17;;;17.40;57.80;;;;;;5125786;28;20023;-40
2021/12/22 12:09:46;;;;;;;1.75;1.00;;;17.30;57.80;;;;;;5123125;28;20109;-41
2021/12/22 12:12:48;;;;;;;1.42;0.80;;;17.30;57.90;;;;;;5119575;27;20035;-40
2021/12/22 12:15:52;;;;;;;1.42;0.90;;;17.50;57.90;;;;;;5114735;28;20032;-41
2021/12/22 12:21:58;;;;;;;1.13;1.02;;;17.50;57.70;;;;;;5125665;28;20139;-40
2021/12/22 12:24:49;;;;;;;2.05;1.08;;;17.50;57.70;;;;;;5125852;27;20032;-41
2021/12/22 12:27:38;;;;;;;1.00;0.90;;;17.40;57.80;;;;;;5123909;28;20110;-40
2021/12/22 12:30:08;;;;;;;;;;;17.30;57.90;;;;;;5116989;28;20133;-41
2021/12/22 12:32:40;;;;;;;1.30;1.05;;;17.40;57.90;;;;;;5104921;28;19908;-41
2021/12/22 12:35:28;;;;;;;1.52;0.95;;;17.40;57.90;;;;;;5104849;28;20837;-40
2021/12/22 12:38:16;;;;;;;1.45;1.27;;;17.50;57.80;;;;;;5108843;28;20039;-40
2021/12/22 12:40:55;;;;;;;;;;;17.50;57.70;;;;;;5125623;28;20028;-40
2021/12/22 12:46:24;;;;;;;0.98;0.98;;;17.40;57.70;;;;;;5104906;28;20028;-42
2021/12/22 12:49:07;;;;;;;1.45;1.02;;;17.30;57.80;;;;;;5104249;28;20052;-40
2021/12/22 12:51:42;;;;;;;1.63;0.98;;;17.30;57.80;;;;;;5103448;28;20020;-41
2021/12/22 12:54:17;;;;;;;0.90;0.85;;;17.40;57.80;;;;;;5104849;28;20039;-40
2021/12/22 12:56:43;;;;;;;1.20;0.90;;;17.50;57.80;;;;;;5104675;28;20027;-41
2021/12/22 12:59:11;;;;;;;1.15;1.05;;;17.50;57.70;;;;;;5117599;28;20027;-41
2021/12/22 13:01:52;;;;;;;1.33;1.05;;;17.50;57.60;;;;;;5124721;28;20111;-39
2021/12/22 13:04:25;;;;;;;1.10;1.00;;;17.40;57.60;;;;;;5124776;28;20043;-40
2021/12/22 13:07:01;;;;;;;1.60;0.90;;;17.40;57.80;;;;;;5124707;28;20118;-40
2021/12/22 13:09:30;;;;;;;1.25;0.82;;;17.40;57.80;;;;;;5123183;28;20031;-40
2021/12/22 13:17:23;;;;;;;1.20;1.05;;;17.50;57.60;;;;;;5123526;28;20038;-42
2021/12/22 13:19:53;;;;;;;1.00;0.83;;;17.50;57.60;;;;;;5124003;28;20035;-40
2021/12/22 13:22:20;;;;;;;1.27;1.17;;;17.40;57.60;;;;;;5124378;28;20050;-40